This is the latest recevied weather packets stored in our database for station/object KG7FOQ-13. If no packets are shown the sender has not sent any weather packets the latest 10 day(s).
| Time | Temp. | Humidity | Pressure | Rain* | Wind** | Luminosity | Snow |
|---|---|---|---|---|---|---|---|
| 1778129244 | 13.89° C | 46% | 1016.3 hPa | 0 mm | - | - | - |
| 1778128943 | 13.89° C | 46% | 1016.3 hPa | 0 mm | - | - | - |
| 1778128643 | 13.89° C | 46% | 1016.4 hPa | 0 mm | - | - | - |
| 1778128342 | 13.33° C | 46% | 1016.5 hPa | 0 mm | - | - | - |
| 1778128042 | 13.89° C | 46% | 1016.5 hPa | 0 mm | - | - | - |
| 1778127840 | 14.44° C | 43% | 1016.5 hPa | 0 mm | - | - | - |
| 1778127742 | 14.44° C | 43% | 1016.5 hPa | 0 mm | - | - | - |
| 1778127441 | 15° C | 41% | 1016.5 hPa | 0 mm | - | - | - |
| 1778127141 | 14.44° C | 40% | 1016.5 hPa | 0 mm | - | - | - |
| 1778126840 | 15° C | 39% | 1016.5 hPa | 0 mm | - | - | - |
| 1778126539 | 15° C | 42% | 1016.6 hPa | 0 mm | - | - | - |
| 1778126239 | 14.44° C | 43% | 1016.7 hPa | 0 mm | - | - | - |
| 1778125938 | 14.44° C | 43% | 1016.6 hPa | 0 mm | - | - | - |
| 1778125638 | 15° C | 40% | 1016.6 hPa | 0 mm | - | - | - |
| 1778125337 | 15.56° C | 41% | 1016.5 hPa | 0 mm | - | - | - |
| 1778125037 | 14.44° C | 43% | 1016.6 hPa | 0 mm | - | - | - |
| 1778124736 | 16.67° C | 39% | 1016.5 hPa | 0 mm | - | - | - |
| 1778124436 | 16.67° C | 38% | 1016.5 hPa | 0 mm | - | - | - |
| 1778124135 | 15.56° C | 42% | 1016.4 hPa | 0 mm | - | - | - |
| 1778123835 | 15° C | 43% | 1016.4 hPa | 0 mm | - | - | - |
| 1778123534 | 17.78° C | 35% | 1016.3 hPa | 0 mm | - | - | - |
| 1778123233 | 18.33° C | 33% | 1016.2 hPa | 0 mm | - | - | - |
| 1778122972 | 18.33° C | 35% | 1016 hPa | 0 mm | - | - | - |
| 1778122932 | 18.33° C | 35% | 1016 hPa | 0 mm | - | - | - |
| 1778122632 | 17.22° C | 37% | 1015.9 hPa | 0 mm | - | - | - |
* Rain latest hour (hover to see other rain measurements)
** Current wind speed in m/s (hover to see current wind gust speed)